createdAt,value
2022-12-02T00:02:21.289Z,40.30
2022-12-02T00:05:00.537Z,40.58
2022-12-02T00:07:31.811Z,40.40
2022-12-02T00:10:02.510Z,40.17
2022-12-02T00:12:35.859Z,40.21
2022-12-02T00:15:44.024Z,40.30
2022-12-02T00:18:18.922Z,40.22
2022-12-02T00:20:49.982Z,40.31
2022-12-02T00:23:20.655Z,40.35
2022-12-02T00:25:53.847Z,40.49
2022-12-02T00:28:24.075Z,40.12
2022-12-02T00:30:54.123Z,40.23
2022-12-02T00:33:26.359Z,40.59
2022-12-02T00:35:56.775Z,40.53
2022-12-02T00:38:26.942Z,40.44
2022-12-02T00:40:57.331Z,40.62
2022-12-02T00:43:43.949Z,40.27
2022-12-02T00:46:30.768Z,40.41
2022-12-02T00:49:04.714Z,40.65
2022-12-02T00:51:34.997Z,40.55
2022-12-02T00:54:05.630Z,40.58
2022-12-02T00:56:37.080Z,40.83
2022-12-02T00:59:08.054Z,40.57
2022-12-02T01:01:39.251Z,40.48
2022-12-02T01:04:12.076Z,40.43
2022-12-02T01:06:42.608Z,40.77
2022-12-02T01:09:13.367Z,40.51
2022-12-02T01:11:56.534Z,40.76
2022-12-02T01:14:27.242Z,40.81
2022-12-02T01:16:57.939Z,40.87
2022-12-02T01:19:30.826Z,40.60
2022-12-02T01:22:01.778Z,40.94
2022-12-02T01:24:32.259Z,40.61
2022-12-02T01:27:02.530Z,40.81
2022-12-02T01:29:32.709Z,40.71
2022-12-02T01:32:03.424Z,40.42
2022-12-02T01:34:35.482Z,40.39
2022-12-02T01:37:06.145Z,40.98
2022-12-02T01:39:37.000Z,40.83
2022-12-02T01:42:08.545Z,40.60
2022-12-02T01:44:40.188Z,40.82
2022-12-02T01:47:10.392Z,40.95
2022-12-02T01:49:43.072Z,40.79
2022-12-02T01:52:13.197Z,40.47
2022-12-02T01:54:43.904Z,41.27
2022-12-02T01:57:17.074Z,41.03
2022-12-02T01:59:47.994Z,41.00
2022-12-02T02:02:36.128Z,41.07
2022-12-02T02:05:11.828Z,40.52
2022-12-02T02:07:45.125Z,41.23
2022-12-02T02:10:16.055Z,40.75
2022-12-02T02:12:48.670Z,40.96
2022-12-02T02:15:20.711Z,41.13
2022-12-02T02:17:51.293Z,40.54
2022-12-02T02:20:27.602Z,41.13
2022-12-02T02:23:21.120Z,40.76
2022-12-02T02:25:55.187Z,41.15
2022-12-02T02:28:27.182Z,40.85
2022-12-02T02:31:00.123Z,41.05
2022-12-02T02:33:34.653Z,41.09
2022-12-02T02:36:06.356Z,40.83
2022-12-02T02:38:40.217Z,40.89
2022-12-02T02:41:11.615Z,41.06
2022-12-02T02:43:42.842Z,40.82
2022-12-02T02:46:13.381Z,40.90
2022-12-02T02:48:45.307Z,40.83
2022-12-02T02:51:16.815Z,41.17
2022-12-02T02:53:49.413Z,41.20
2022-12-02T02:56:20.173Z,40.80
2022-12-02T02:58:50.377Z,40.90
2022-12-02T03:01:25.158Z,40.54
2022-12-02T03:04:01.144Z,40.67
2022-12-02T03:06:35.493Z,41.02
2022-12-02T03:09:11.168Z,40.83
2022-12-02T03:11:44.207Z,40.79
2022-12-02T03:14:17.150Z,40.92
2022-12-02T03:16:49.076Z,40.85
2022-12-02T03:19:21.061Z,41.00
2022-12-02T03:21:52.196Z,40.89
2022-12-02T03:24:24.757Z,40.47
2022-12-02T03:26:55.005Z,40.66
2022-12-02T03:29:25.605Z,40.65
2022-12-02T03:31:55.849Z,40.82
2022-12-02T03:34:26.868Z,40.73
2022-12-02T03:36:58.299Z,40.65
2022-12-02T03:39:30.859Z,40.87
2022-12-02T03:42:01.031Z,40.61
2022-12-02T03:44:31.136Z,40.71
2022-12-02T03:47:02.254Z,40.60
2022-12-02T03:49:35.767Z,40.49
2022-12-02T03:52:06.674Z,40.57
2022-12-02T03:54:39.175Z,40.73
2022-12-02T03:57:11.438Z,40.50
2022-12-02T03:59:41.977Z,40.81
2022-12-02T04:02:12.632Z,40.68
2022-12-02T04:04:43.451Z,40.78
2022-12-02T04:07:14.107Z,40.51
2022-12-02T04:09:46.225Z,40.92
2022-12-02T04:12:16.935Z,40.57
2022-12-02T04:14:47.448Z,40.88
2022-12-02T04:17:18.094Z,40.76
2022-12-02T04:19:49.833Z,40.71
2022-12-02T04:22:20.567Z,40.65
2022-12-02T04:24:52.720Z,40.75
2022-12-02T04:27:23.389Z,40.87
2022-12-02T04:29:53.445Z,40.61
2022-12-02T04:32:24.155Z,40.55
2022-12-02T04:34:54.720Z,40.97
2022-12-02T04:37:25.156Z,40.95
2022-12-02T04:39:56.971Z,41.26
2022-12-02T04:42:26.981Z,40.98
2022-12-02T04:44:57.417Z,41.06
2022-12-02T04:47:27.450Z,40.84
2022-12-02T04:49:57.988Z,40.95
2022-12-02T04:52:28.481Z,41.30
2022-12-02T04:55:00.523Z,41.11
2022-12-02T04:57:31.855Z,40.87
2022-12-02T05:00:03.136Z,40.79
2022-12-02T05:02:33.468Z,41.05
2022-12-02T05:05:04.507Z,40.83
2022-12-02T05:07:35.367Z,41.60
2022-12-02T05:10:08.399Z,41.57
2022-12-02T05:12:39.256Z,41.17
2022-12-02T05:15:11.769Z,41.11
2022-12-02T05:17:42.542Z,41.47
2022-12-02T05:20:14.969Z,41.44
2022-12-02T05:22:45.742Z,41.22
2022-12-02T05:25:19.431Z,41.54
2022-12-02T05:27:50.175Z,41.11
2022-12-02T05:30:21.144Z,41.56
2022-12-02T05:32:53.526Z,41.03
2022-12-02T05:35:23.824Z,41.43
2022-12-02T05:37:56.422Z,41.23
2022-12-02T05:40:39.659Z,41.71
2022-12-02T05:43:20.847Z,41.18
2022-12-02T05:45:50.900Z,41.65
2022-12-02T05:48:23.358Z,41.43
2022-12-02T05:50:56.786Z,41.32
2022-12-02T05:53:30.135Z,41.30
2022-12-02T05:56:05.425Z,41.78
2022-12-02T05:58:36.213Z,41.85
2022-12-02T06:01:21.662Z,41.97
2022-12-02T06:03:52.929Z,42.31
2022-12-02T06:06:34.544Z,42.00
2022-12-02T06:09:05.763Z,42.41
2022-12-02T06:11:39.385Z,42.37
2022-12-02T06:14:18.994Z,42.74
2022-12-02T06:16:54.438Z,42.46
2022-12-02T06:19:35.786Z,42.72
2022-12-02T06:22:17.125Z,42.80
2022-12-02T06:24:48.722Z,42.73
2022-12-02T06:27:23.258Z,42.70
2022-12-02T06:29:58.104Z,42.67
2022-12-02T06:32:40.041Z,42.53
2022-12-02T06:35:27.511Z,42.43
2022-12-02T06:38:00.189Z,42.48
2022-12-02T06:40:37.348Z,42.38
2022-12-02T06:43:17.382Z,41.89
2022-12-02T06:45:49.296Z,42.06
2022-12-02T06:48:33.768Z,42.09
2022-12-02T06:51:18.817Z,41.68
2022-12-02T06:53:50.031Z,41.59
2022-12-02T06:56:27.303Z,41.24
2022-12-02T06:59:17.773Z,41.24
2022-12-02T07:01:49.195Z,41.45
2022-12-02T07:04:41.693Z,40.95
2022-12-02T07:07:23.535Z,41.04
2022-12-02T07:09:59.784Z,41.01
2022-12-02T07:12:39.915Z,40.55
2022-12-02T07:15:30.242Z,40.78
2022-12-02T07:18:05.032Z,39.95
2022-12-02T07:20:38.514Z,40.29
2022-12-02T07:23:21.708Z,39.41
2022-12-02T07:25:56.472Z,39.86
2022-12-02T07:28:31.447Z,39.49
2022-12-02T07:31:13.589Z,39.45
2022-12-02T07:33:44.489Z,39.42
2022-12-02T07:36:14.980Z,39.14
2022-12-02T07:41:37.641Z,38.45
2022-12-02T07:44:09.216Z,38.18
2022-12-02T07:46:41.964Z,38.17
2022-12-02T07:49:19.469Z,37.83
2022-12-02T07:51:50.518Z,38.00
2022-12-02T07:54:21.140Z,38.25
2022-12-02T07:56:52.095Z,38.26
2022-12-02T07:59:22.602Z,38.17
2022-12-02T08:01:55.423Z,38.80
2022-12-02T08:04:26.152Z,38.77
2022-12-02T08:06:56.128Z,38.10
2022-12-02T08:09:26.334Z,38.24
2022-12-02T08:11:57.230Z,38.50
2022-12-02T08:14:28.441Z,38.17
2022-12-02T08:17:00.605Z,38.32
2022-12-02T08:19:54.673Z,37.89
2022-12-02T08:22:27.718Z,37.52
2022-12-02T08:24:58.350Z,37.39
2022-12-02T08:27:29.331Z,36.38
2022-12-02T08:30:00.061Z,35.74
2022-12-02T08:32:31.489Z,35.81
2022-12-02T08:35:02.355Z,34.95
2022-12-02T08:37:33.121Z,34.44
2022-12-02T08:40:02.781Z,33.38
2022-12-02T08:42:33.200Z,32.83
2022-12-02T08:45:04.187Z,32.50
2022-12-02T08:47:36.912Z,31.99
2022-12-02T08:50:09.381Z,32.08
2022-12-02T08:52:39.507Z,31.69
2022-12-02T08:55:10.343Z,31.48
2022-12-02T08:57:40.357Z,31.22
2022-12-02T09:00:13.201Z,30.94
2022-12-02T09:02:46.204Z,31.08
2022-12-02T09:05:16.964Z,31.28
2022-12-02T09:07:47.929Z,30.90
2022-12-02T09:10:18.941Z,30.84
2022-12-02T09:12:49.757Z,31.25
2022-12-02T09:15:21.312Z,30.98
2022-12-02T09:17:54.179Z,30.95
2022-12-02T09:20:25.052Z,31.04
2022-12-02T09:22:56.757Z,31.82
2022-12-02T09:25:27.233Z,32.17
2022-12-02T09:27:58.184Z,31.88
2022-12-02T09:30:28.861Z,32.43
2022-12-02T09:33:16.162Z,31.65
2022-12-02T09:35:46.914Z,31.58
2022-12-02T09:38:17.332Z,32.02
2022-12-02T09:40:48.507Z,31.88
2022-12-02T09:43:19.646Z,31.19
2022-12-02T09:45:50.995Z,31.18
2022-12-02T09:48:23.782Z,31.41
2022-12-02T09:50:54.979Z,31.14
2022-12-02T09:53:33.517Z,31.59
2022-12-02T09:56:05.331Z,31.26
2022-12-02T09:58:35.493Z,31.76
2022-12-02T10:01:06.218Z,31.10
2022-12-02T10:03:39.271Z,31.60
2022-12-02T10:06:17.157Z,31.87
2022-12-02T10:08:48.831Z,31.98
2022-12-02T10:11:27.768Z,31.81
2022-12-02T10:14:00.274Z,31.90
2022-12-02T10:16:31.587Z,32.02
2022-12-02T10:19:06.901Z,32.20
2022-12-02T10:21:37.946Z,31.76
2022-12-02T10:24:10.411Z,31.69
2022-12-02T10:26:52.119Z,31.85
2022-12-02T10:29:29.936Z,32.40
2022-12-02T10:32:03.025Z,31.91
2022-12-02T10:34:37.526Z,32.17
2022-12-02T10:37:26.252Z,32.44
2022-12-02T10:40:16.921Z,32.12
2022-12-02T10:42:49.101Z,32.25
2022-12-02T10:45:23.671Z,32.05
2022-12-02T10:48:14.895Z,32.15
2022-12-02T10:50:47.948Z,32.57
2022-12-02T10:53:20.689Z,32.63
2022-12-02T10:55:51.116Z,32.85
2022-12-02T10:58:28.594Z,32.76
2022-12-02T11:01:00.482Z,32.58
2022-12-02T11:03:30.594Z,32.92
2022-12-02T11:06:04.447Z,32.89
2022-12-02T11:08:35.341Z,33.02
2022-12-02T11:11:15.409Z,32.96
2022-12-02T11:13:57.882Z,32.92
2022-12-02T11:17:07.906Z,33.13
2022-12-02T11:19:48.458Z,33.25
2022-12-02T11:23:09.188Z,33.32
2022-12-02T11:26:11.576Z,33.19
2022-12-02T11:29:08.745Z,33.39
2022-12-02T11:31:39.352Z,33.21
2022-12-02T11:34:35.461Z,33.53
2022-12-02T11:38:22.958Z,33.62
2022-12-02T11:41:03.609Z,33.77
2022-12-02T11:44:12.184Z,33.53
2022-12-02T11:46:49.985Z,33.56
2022-12-02T11:49:41.466Z,33.73
2022-12-02T11:52:23.926Z,33.68
2022-12-02T11:55:13.811Z,33.51
2022-12-02T11:57:50.244Z,33.90
2022-12-02T12:00:37.309Z,33.49
2022-12-02T12:03:18.356Z,34.07
2022-12-02T12:06:11.719Z,33.90
2022-12-02T12:08:45.483Z,33.94
2022-12-02T12:11:25.532Z,33.94
2022-12-02T12:14:09.399Z,33.97
2022-12-02T12:16:43.044Z,33.93
2022-12-02T12:19:28.989Z,34.10
2022-12-02T12:22:01.547Z,34.28
2022-12-02T12:24:38.547Z,34.24
2022-12-02T12:27:37.301Z,34.38
2022-12-02T12:30:10.608Z,34.25
2022-12-02T12:32:41.071Z,34.45
2022-12-02T12:35:14.280Z,34.51
2022-12-02T12:37:45.151Z,34.72
2022-12-02T12:40:17.148Z,34.51
2022-12-02T12:42:49.139Z,34.55
2022-12-02T12:45:19.466Z,34.64
2022-12-02T12:47:49.885Z,34.58
2022-12-02T12:50:24.521Z,34.64
2022-12-02T12:52:58.100Z,34.77
2022-12-02T12:55:29.157Z,34.96
2022-12-02T12:58:01.698Z,34.95
2022-12-02T13:00:32.588Z,34.90
2022-12-02T13:03:03.328Z,34.96
2022-12-02T13:05:34.130Z,34.86
2022-12-02T13:08:09.434Z,35.14
2022-12-02T13:10:53.428Z,35.08
2022-12-02T13:13:25.675Z,35.17
2022-12-02T13:15:56.565Z,35.16
2022-12-02T13:18:27.353Z,35.21
2022-12-02T13:20:58.224Z,35.18
2022-12-02T13:23:29.829Z,35.40
2022-12-02T13:25:59.955Z,35.36
2022-12-02T13:28:47.574Z,35.50
2022-12-02T13:31:18.088Z,35.28
2022-12-02T13:33:51.096Z,35.45
2022-12-02T13:36:23.017Z,35.44
2022-12-02T13:38:53.027Z,35.55
2022-12-02T13:41:23.234Z,35.36
2022-12-02T13:43:55.659Z,35.49
2022-12-02T13:46:26.214Z,35.51
2022-12-02T13:48:56.421Z,35.52
2022-12-02T13:51:27.006Z,35.80
2022-12-02T13:53:59.264Z,35.54
2022-12-02T13:56:30.805Z,35.69
2022-12-02T13:59:02.876Z,35.84
2022-12-02T14:01:33.400Z,35.61
2022-12-02T14:04:04.688Z,35.98
2022-12-02T14:06:35.413Z,35.88
2022-12-02T14:09:06.773Z,36.16
2022-12-02T14:11:39.686Z,36.04
2022-12-02T14:14:13.107Z,35.92
2022-12-02T14:16:44.264Z,35.92
2022-12-02T14:19:14.090Z,36.24
2022-12-02T14:21:45.068Z,36.13
2022-12-02T14:24:19.033Z,36.14
2022-12-02T14:26:50.676Z,36.07
2022-12-02T14:29:25.747Z,36.01
2022-12-02T14:31:56.447Z,36.09
2022-12-02T14:34:26.980Z,36.11
2022-12-02T14:36:59.550Z,36.49
2022-12-02T14:39:33.130Z,36.19
2022-12-02T14:42:04.826Z,36.23
2022-12-02T14:44:37.150Z,36.37
2022-12-02T14:47:09.678Z,36.31
2022-12-02T14:49:41.485Z,36.43
2022-12-02T14:52:13.671Z,36.45
2022-12-02T14:54:47.108Z,36.40
2022-12-02T14:57:21.721Z,36.41
2022-12-02T14:59:57.889Z,36.75
2022-12-02T15:02:29.181Z,36.76
2022-12-02T15:05:00.419Z,36.65
2022-12-02T15:07:31.289Z,36.81
2022-12-02T15:10:02.488Z,36.69
2022-12-02T15:12:35.562Z,36.68
2022-12-02T15:18:17.734Z,36.79
2022-12-02T15:20:51.493Z,36.86
2022-12-02T15:23:23.008Z,37.09
2022-12-02T15:25:55.147Z,37.00
2022-12-02T15:28:28.593Z,37.01
2022-12-02T15:31:05.739Z,36.88
2022-12-02T15:33:41.864Z,36.89
2022-12-02T15:36:13.594Z,37.10
2022-12-02T15:38:44.380Z,36.97
2022-12-02T15:41:14.643Z,37.27
2022-12-02T15:43:54.413Z,37.24
2022-12-02T15:46:26.366Z,37.28
2022-12-02T15:48:57.052Z,37.28
2022-12-02T15:51:32.212Z,37.39
2022-12-02T15:54:03.939Z,37.63
2022-12-02T15:56:37.442Z,37.34
2022-12-02T15:59:11.435Z,37.40
2022-12-02T16:01:45.167Z,37.53
2022-12-02T16:04:19.648Z,37.42
2022-12-02T16:06:51.096Z,37.39
2022-12-02T16:09:26.143Z,37.82
2022-12-02T16:11:57.837Z,37.67
2022-12-02T16:14:36.102Z,37.30
2022-12-02T16:17:15.163Z,37.63
2022-12-02T16:19:47.452Z,37.52
2022-12-02T16:22:19.518Z,37.60
2022-12-02T16:24:53.142Z,37.53
2022-12-02T16:27:24.914Z,37.59
2022-12-02T16:30:00.131Z,37.37
2022-12-02T16:32:35.617Z,37.63
2022-12-02T16:35:07.251Z,37.59
2022-12-02T16:37:39.503Z,37.84
2022-12-02T16:40:17.243Z,37.66
2022-12-02T16:42:50.037Z,37.62
2022-12-02T16:45:20.560Z,37.70
2022-12-02T16:47:56.217Z,37.76
2022-12-02T16:50:28.599Z,37.67
2022-12-02T16:52:59.317Z,37.78
2022-12-02T16:55:32.089Z,37.82
2022-12-02T16:58:04.269Z,37.75
2022-12-02T17:00:37.136Z,37.81
2022-12-02T17:03:13.025Z,37.91
2022-12-02T17:05:49.643Z,37.65
2022-12-02T17:08:20.716Z,37.88
2022-12-02T17:10:53.532Z,37.82
2022-12-02T17:13:28.597Z,37.74
2022-12-02T17:16:01.070Z,37.99
2022-12-02T17:18:39.062Z,37.82
2022-12-02T17:21:13.598Z,37.89
2022-12-02T17:23:45.823Z,37.91
2022-12-02T17:26:20.225Z,38.01
2022-12-02T17:28:52.308Z,37.85
2022-12-02T17:31:23.411Z,38.02
2022-12-02T17:33:58.146Z,37.96
2022-12-02T17:36:32.187Z,37.95
2022-12-02T17:39:08.457Z,38.10
2022-12-02T17:41:44.874Z,38.25
2022-12-02T17:44:20.475Z,38.26
2022-12-02T17:46:55.143Z,38.32
2022-12-02T17:49:33.823Z,38.18
2022-12-02T17:52:21.242Z,38.04
2022-12-02T17:54:53.274Z,38.29
2022-12-02T17:57:23.500Z,38.26
2022-12-02T17:59:54.907Z,38.40
2022-12-02T18:02:28.916Z,38.45
2022-12-02T18:05:07.526Z,38.15
2022-12-02T18:07:40.727Z,38.41
2022-12-02T18:10:13.235Z,38.51
2022-12-02T18:12:46.798Z,38.61
2022-12-02T18:15:19.087Z,38.45
2022-12-02T18:17:55.276Z,38.38
2022-12-02T18:20:31.288Z,38.27
2022-12-02T18:23:11.666Z,38.40
2022-12-02T18:25:44.045Z,38.48
2022-12-02T18:28:22.487Z,38.39
2022-12-02T18:30:54.583Z,38.39
2022-12-02T18:33:33.498Z,38.36
2022-12-02T18:36:14.732Z,38.31
2022-12-02T18:38:49.208Z,38.37
2022-12-02T18:41:25.886Z,38.29
2022-12-02T18:44:03.438Z,38.36
2022-12-02T18:46:43.997Z,38.49
2022-12-02T18:49:17.671Z,38.46
2022-12-02T18:51:55.541Z,38.55
2022-12-02T18:54:30.777Z,38.46
2022-12-02T18:57:05.411Z,38.63
2022-12-02T18:59:39.709Z,38.62
2022-12-02T19:02:20.552Z,38.55
2022-12-02T19:04:56.031Z,38.62
2022-12-02T19:07:35.918Z,38.59
2022-12-02T19:10:16.369Z,38.69
2022-12-02T19:12:49.750Z,38.58
2022-12-02T19:15:35.652Z,38.70
2022-12-02T19:18:16.573Z,38.68
2022-12-02T19:20:51.745Z,38.50
2022-12-02T19:23:29.861Z,38.78
2022-12-02T19:26:01.531Z,38.80
2022-12-02T19:28:35.145Z,38.87
2022-12-02T19:31:08.259Z,38.80
2022-12-02T19:33:41.343Z,38.87
2022-12-02T19:36:12.997Z,38.73
2022-12-02T19:38:50.267Z,38.83
2022-12-02T19:41:23.262Z,38.89
2022-12-02T19:44:03.749Z,38.85
2022-12-02T19:46:37.162Z,38.82
2022-12-02T19:49:08.263Z,38.89
2022-12-02T19:51:41.133Z,38.87
2022-12-02T19:54:15.100Z,38.84
2022-12-02T19:56:51.006Z,38.91
2022-12-02T19:59:24.141Z,38.82
2022-12-02T20:01:54.497Z,39.16
2022-12-02T20:04:40.768Z,38.83
2022-12-02T20:07:12.236Z,38.76
2022-12-02T20:09:44.350Z,38.87
2022-12-02T20:12:15.123Z,38.86
2022-12-02T20:14:45.862Z,39.04
2022-12-02T20:17:16.100Z,38.94
2022-12-02T20:19:47.051Z,38.88
2022-12-02T20:22:17.784Z,38.79
2022-12-02T20:24:50.870Z,38.93
2022-12-02T20:27:21.784Z,39.01
2022-12-02T20:29:52.673Z,38.78
2022-12-02T20:32:23.314Z,38.82
2022-12-02T20:34:54.149Z,38.88
2022-12-02T20:37:24.932Z,39.21
2022-12-02T20:39:57.520Z,38.85
2022-12-02T20:42:27.918Z,39.04
2022-12-02T20:45:00.725Z,39.10
2022-12-02T20:47:33.773Z,38.89
2022-12-02T20:50:05.960Z,39.09
2022-12-02T20:52:41.536Z,39.27
2022-12-02T20:55:15.397Z,39.03
2022-12-02T20:57:45.942Z,39.09
2022-12-02T21:00:22.636Z,38.70
2022-12-02T21:02:53.015Z,38.85
2022-12-02T21:05:23.529Z,38.86
2022-12-02T21:07:54.806Z,38.99
2022-12-02T21:10:27.600Z,39.14
2022-12-02T21:13:00.909Z,39.09
2022-12-02T21:15:31.552Z,39.59
2022-12-02T21:18:01.688Z,39.16
2022-12-02T21:20:35.174Z,39.12
2022-12-02T21:23:05.676Z,39.25
2022-12-02T21:25:38.942Z,39.22
2022-12-02T21:28:09.903Z,39.18
2022-12-02T21:30:41.201Z,39.19
2022-12-02T21:33:11.719Z,39.26
2022-12-02T21:35:41.914Z,38.95
2022-12-02T21:38:12.456Z,39.19
2022-12-02T21:40:45.159Z,39.47
2022-12-02T21:43:16.611Z,39.48
2022-12-02T21:45:47.516Z,39.21
2022-12-02T21:48:17.772Z,39.24
2022-12-02T21:50:48.571Z,39.34
2022-12-02T21:53:18.588Z,39.29
2022-12-02T21:55:51.356Z,39.20
2022-12-02T21:58:22.040Z,39.29
2022-12-02T22:01:12.293Z,39.23
2022-12-02T22:03:44.139Z,39.29
2022-12-02T22:06:14.164Z,39.34
2022-12-02T22:08:43.782Z,39.29
2022-12-02T22:11:16.166Z,39.31
2022-12-02T22:13:46.116Z,39.32
2022-12-02T22:16:16.468Z,39.56
2022-12-02T22:18:46.893Z,39.32
2022-12-02T22:21:17.556Z,39.59
2022-12-02T22:23:48.346Z,39.60
2022-12-02T22:26:21.084Z,39.08
2022-12-02T22:28:51.410Z,39.57
2022-12-02T22:31:21.773Z,39.20
2022-12-02T22:33:52.316Z,39.17
2022-12-02T22:36:22.376Z,39.28
2022-12-02T22:38:53.083Z,39.51
2022-12-02T22:41:25.687Z,39.38
2022-12-02T22:43:56.392Z,39.45
2022-12-02T22:46:26.982Z,39.39
2022-12-02T22:48:57.543Z,39.29
2022-12-02T22:51:33.904Z,39.22
2022-12-02T22:54:06.231Z,39.23
2022-12-02T22:56:38.773Z,39.41
2022-12-02T22:59:09.321Z,39.20
2022-12-02T23:01:39.914Z,38.87
2022-12-02T23:04:09.872Z,39.24
2022-12-02T23:06:40.073Z,39.34
2022-12-02T23:09:10.219Z,39.04
2022-12-02T23:11:42.993Z,39.37
2022-12-02T23:14:13.441Z,39.35
2022-12-02T23:16:43.773Z,39.42
2022-12-02T23:19:14.623Z,39.44
2022-12-02T23:21:45.573Z,39.43
2022-12-02T23:24:16.315Z,39.21
2022-12-02T23:26:48.643Z,39.06
2022-12-02T23:29:18.395Z,39.43
2022-12-02T23:31:49.005Z,39.12
2022-12-02T23:34:19.909Z,39.26
2022-12-02T23:36:50.510Z,38.96
2022-12-02T23:39:21.180Z,39.03
2022-12-02T23:41:53.739Z,39.08
2022-12-02T23:44:24.316Z,38.95
2022-12-02T23:46:54.340Z,39.06
2022-12-02T23:49:24.263Z,39.38
2022-12-02T23:51:54.990Z,39.05
2022-12-02T23:54:25.156Z,39.18
2022-12-02T23:56:57.096Z,39.38
2022-12-02T23:59:26.847Z,39.14
